createdAt,value
2022-11-13T00:02:34.729Z,9.84
2022-11-13T00:05:58.254Z,9.94
2022-11-13T00:09:13.941Z,9.36
2022-11-13T00:12:29.772Z,9.30
2022-11-13T00:15:44.869Z,9.32
2022-11-13T00:19:00.969Z,8.98
2022-11-13T00:22:16.227Z,8.90
2022-11-13T00:25:32.141Z,8.81
2022-11-13T00:28:52.557Z,9.50
2022-11-13T00:32:07.964Z,10.09
2022-11-13T00:35:23.992Z,9.77
2022-11-13T00:38:39.300Z,9.05
2022-11-13T00:41:54.887Z,8.74
2022-11-13T00:45:11.213Z,9.21
2022-11-13T00:48:27.219Z,9.41
2022-11-13T00:51:42.901Z,9.12
2022-11-13T00:54:59.148Z,8.60
2022-11-13T00:58:15.038Z,9.00
2022-11-13T01:01:31.364Z,9.26
2022-11-13T01:04:47.143Z,8.84
2022-11-13T01:08:03.805Z,8.67
2022-11-13T01:11:21.176Z,8.73
2022-11-13T01:14:36.949Z,8.96
2022-11-13T01:17:55.140Z,8.80
2022-11-13T01:21:19.020Z,9.24
2022-11-13T01:24:34.917Z,9.51
2022-11-13T01:27:51.133Z,8.91
2022-11-13T01:31:08.004Z,8.64
2022-11-13T01:34:24.099Z,8.52
2022-11-13T01:37:40.254Z,8.78
2022-11-13T01:40:56.230Z,8.69
2022-11-13T01:44:15.968Z,8.54
2022-11-13T01:47:31.960Z,8.25
2022-11-13T01:50:47.064Z,8.31
2022-11-13T01:54:05.203Z,8.56
2022-11-13T01:57:21.253Z,8.39
2022-11-13T02:00:37.256Z,8.32
2022-11-13T02:03:53.128Z,8.33
2022-11-13T02:07:13.274Z,8.42
2022-11-13T02:10:28.954Z,8.21
2022-11-13T02:13:45.466Z,8.02
2022-11-13T02:17:03.323Z,8.37
2022-11-13T02:20:27.392Z,8.60
2022-11-13T02:24:19.757Z,8.96
2022-11-13T02:27:46.081Z,8.78
2022-11-13T02:31:12.198Z,8.28
2022-11-13T02:34:27.997Z,8.03
2022-11-13T02:37:44.144Z,7.95
2022-11-13T02:41:00.107Z,7.92
2022-11-13T02:44:15.137Z,7.89
2022-11-13T02:47:31.207Z,8.02
2022-11-13T02:50:47.093Z,7.98
2022-11-13T02:54:03.388Z,7.99
2022-11-13T02:57:19.081Z,8.08
2022-11-13T03:00:34.297Z,8.06
2022-11-13T03:03:58.267Z,7.99
2022-11-13T03:07:15.310Z,7.94
2022-11-13T03:10:31.209Z,7.91
2022-11-13T03:13:47.209Z,7.95
2022-11-13T03:17:02.925Z,7.89
2022-11-13T03:20:18.357Z,7.99
2022-11-13T03:23:34.353Z,8.06
2022-11-13T03:26:50.221Z,8.06
2022-11-13T03:30:06.912Z,7.74
2022-11-13T03:33:23.501Z,7.58
2022-11-13T03:36:39.274Z,7.69
2022-11-13T03:39:55.059Z,7.77
2022-11-13T03:43:11.108Z,7.69
2022-11-13T03:46:26.072Z,7.69
2022-11-13T03:49:42.261Z,8.09
2022-11-13T03:52:58.614Z,8.19
2022-11-13T03:56:13.998Z,8.07
2022-11-13T03:59:30.367Z,7.98
2022-11-13T04:02:46.208Z,8.06
2022-11-13T04:06:01.235Z,7.97
2022-11-13T04:09:17.456Z,7.73
2022-11-13T04:12:33.395Z,7.56
2022-11-13T04:15:49.262Z,7.67
2022-11-13T04:19:05.130Z,7.69
2022-11-13T04:22:21.255Z,7.55
2022-11-13T04:25:37.209Z,7.52
2022-11-13T04:28:53.169Z,7.61
2022-11-13T04:32:09.307Z,7.78
2022-11-13T04:35:25.185Z,7.97
2022-11-13T04:38:41.266Z,8.15
2022-11-13T04:42:16.132Z,8.19
2022-11-13T04:45:31.190Z,7.91
2022-11-13T04:48:47.250Z,8.09
2022-11-13T04:52:03.668Z,8.07
2022-11-13T04:55:19.425Z,7.93
2022-11-13T04:58:35.393Z,7.78
2022-11-13T05:01:51.313Z,7.54
2022-11-13T05:05:07.444Z,7.28
2022-11-13T05:08:23.293Z,7.21
2022-11-13T05:11:39.195Z,7.25
2022-11-13T05:14:55.150Z,7.25
2022-11-13T05:18:11.397Z,7.26
2022-11-13T05:21:27.435Z,7.14
2022-11-13T05:24:43.275Z,7.25
2022-11-13T05:27:59.453Z,7.20
2022-11-13T05:31:15.989Z,7.32
2022-11-13T05:34:31.029Z,7.83
2022-11-13T05:37:47.606Z,8.32
2022-11-13T05:41:18.230Z,8.16
2022-11-13T05:44:34.565Z,7.71
2022-11-13T05:47:50.723Z,6.98
2022-11-13T05:51:08.621Z,6.45
2022-11-13T05:54:24.180Z,6.27
2022-11-13T05:57:40.466Z,6.44
2022-11-13T06:01:09.997Z,6.55
2022-11-13T06:04:25.243Z,6.94
2022-11-13T06:07:40.934Z,7.19
2022-11-13T06:11:03.839Z,7.52
2022-11-13T06:14:19.593Z,7.30
2022-11-13T06:17:35.297Z,7.19
2022-11-13T06:20:51.125Z,6.83
2022-11-13T06:24:06.737Z,6.65
2022-11-13T06:27:22.655Z,6.65
2022-11-13T06:30:38.047Z,6.87
2022-11-13T06:33:54.395Z,6.76
2022-11-13T06:37:10.408Z,6.71
2022-11-13T06:40:26.352Z,6.56
2022-11-13T06:43:42.435Z,6.19
2022-11-13T06:46:58.586Z,6.31
2022-11-13T06:50:14.557Z,6.14
2022-11-13T06:53:30.101Z,6.42
2022-11-13T06:56:45.634Z,6.60
2022-11-13T07:00:01.441Z,6.56
2022-11-13T07:03:18.844Z,6.25
2022-11-13T07:06:40.076Z,6.27
2022-11-13T07:09:56.567Z,6.26
2022-11-13T07:13:12.467Z,6.28
2022-11-13T07:16:44.008Z,6.08
2022-11-13T07:20:04.899Z,6.31
2022-11-13T07:23:20.327Z,6.40
2022-11-13T07:26:36.192Z,6.24
2022-11-13T07:29:51.563Z,6.51
2022-11-13T07:33:07.544Z,6.71
2022-11-13T07:36:23.238Z,6.92
2022-11-13T07:39:39.271Z,7.10
2022-11-13T07:43:02.167Z,7.07
2022-11-13T07:46:18.167Z,7.14
2022-11-13T07:49:33.199Z,7.15
2022-11-13T07:52:49.888Z,7.04
2022-11-13T07:56:07.048Z,7.06
2022-11-13T07:59:23.311Z,7.01
2022-11-13T08:02:39.250Z,6.87
2022-11-13T08:06:00.570Z,6.87
2022-11-13T08:09:16.468Z,7.19
2022-11-13T08:12:32.491Z,7.39
2022-11-13T08:15:48.527Z,7.68
2022-11-13T08:19:04.800Z,7.86
2022-11-13T08:22:20.486Z,7.95
2022-11-13T08:25:36.328Z,8.01
2022-11-13T08:28:51.418Z,8.20
2022-11-13T08:32:07.429Z,8.43
2022-11-13T08:35:28.996Z,8.67
2022-11-13T08:38:44.312Z,9.16
2022-11-13T08:41:59.183Z,9.57
2022-11-13T08:45:15.648Z,9.87
2022-11-13T08:48:31.655Z,10.17
2022-11-13T08:51:47.582Z,10.31
2022-11-13T08:55:03.449Z,10.36
2022-11-13T08:58:19.321Z,10.53
2022-11-13T09:01:35.146Z,10.61
2022-11-13T09:04:50.468Z,10.36
2022-11-13T09:08:06.597Z,10.48
2022-11-13T09:11:22.700Z,10.68
2022-11-13T09:14:39.149Z,10.64
2022-11-13T09:17:59.445Z,10.57
2022-11-13T09:21:14.636Z,10.54
2022-11-13T09:24:30.681Z,10.76
2022-11-13T09:27:55.686Z,10.91
2022-11-13T09:31:11.527Z,11.25
2022-11-13T09:34:27.934Z,11.41
2022-11-13T09:37:43.293Z,11.42
2022-11-13T09:41:05.757Z,11.74
2022-11-13T09:44:29.089Z,11.88
2022-11-13T09:47:44.749Z,11.97
2022-11-13T09:51:02.652Z,11.87
2022-11-13T09:54:18.387Z,11.87
2022-11-13T09:57:51.878Z,12.15
2022-11-13T10:01:12.680Z,12.27
2022-11-13T10:04:45.391Z,12.45
2022-11-13T10:08:18.961Z,12.54
2022-11-13T10:11:53.174Z,12.77
2022-11-13T10:15:08.851Z,12.97
2022-11-13T10:18:27.729Z,13.14
2022-11-13T10:22:19.582Z,13.40
2022-11-13T10:25:36.341Z,13.53
2022-11-13T10:29:06.582Z,13.47
2022-11-13T10:32:24.356Z,13.59
2022-11-13T10:36:17.765Z,13.96
2022-11-13T10:39:41.953Z,14.07
2022-11-13T10:43:06.802Z,14.04
2022-11-13T10:46:26.824Z,13.86
2022-11-13T10:49:42.613Z,13.90
2022-11-13T10:52:58.870Z,14.14
2022-11-13T10:56:31.369Z,14.24
2022-11-13T10:59:47.582Z,13.74
2022-11-13T11:03:03.550Z,13.65
2022-11-13T11:06:19.699Z,14.16
2022-11-13T11:09:38.167Z,14.66
2022-11-13T11:12:56.027Z,14.71
2022-11-13T11:16:15.501Z,14.82
2022-11-13T11:19:32.084Z,14.80
2022-11-13T11:22:49.739Z,14.84
2022-11-13T11:26:12.889Z,14.84
2022-11-13T11:29:32.481Z,14.74
2022-11-13T11:33:09.956Z,14.90
2022-11-13T11:36:29.488Z,15.12
2022-11-13T11:39:55.840Z,15.62
2022-11-13T11:43:25.440Z,15.49
2022-11-13T11:46:45.499Z,15.72
2022-11-13T11:50:03.112Z,15.85
2022-11-13T11:53:21.377Z,16.20
2022-11-13T11:56:42.979Z,17.64
2022-11-13T12:00:12.393Z,21.22
2022-11-13T12:03:52.821Z,19.01
2022-11-13T12:07:39.440Z,17.62
2022-11-13T12:11:16.742Z,17.22
2022-11-13T12:14:49.794Z,19.04
2022-11-13T12:18:17.832Z,17.96
2022-11-13T12:21:55.419Z,16.85
2022-11-13T12:25:28.029Z,16.90
2022-11-13T12:29:09.563Z,17.39
2022-11-13T12:32:24.656Z,18.07
2022-11-13T12:35:40.663Z,21.17
2022-11-13T12:39:06.414Z,20.96
2022-11-13T12:42:30.901Z,18.88
2022-11-13T12:45:52.231Z,17.37
2022-11-13T12:49:28.359Z,16.67
2022-11-13T12:52:44.754Z,16.40
2022-11-13T12:56:02.319Z,16.11
2022-11-13T12:59:34.109Z,16.09
2022-11-13T13:03:03.185Z,16.92
2022-11-13T13:06:43.672Z,16.99
2022-11-13T13:09:59.371Z,16.61
2022-11-13T13:13:23.974Z,16.34
2022-11-13T13:16:40.739Z,15.89
2022-11-13T13:20:26.897Z,15.79
2022-11-13T13:23:50.267Z,15.85
2022-11-13T13:27:25.073Z,16.33
2022-11-13T13:31:16.498Z,16.70
2022-11-13T13:34:36.710Z,17.56
2022-11-13T13:38:04.693Z,17.60
2022-11-13T13:41:35.663Z,18.47
2022-11-13T13:44:50.678Z,18.37
2022-11-13T13:48:10.645Z,17.71
2022-11-13T13:51:43.812Z,17.01
2022-11-13T13:55:00.823Z,16.55
2022-11-13T13:58:18.016Z,16.29
2022-11-13T14:01:34.270Z,16.13
2022-11-13T14:04:52.409Z,16.07
2022-11-13T14:08:17.915Z,16.17
2022-11-13T14:11:33.852Z,16.27
2022-11-13T14:14:49.602Z,16.66
2022-11-13T14:18:13.901Z,16.72
2022-11-13T14:21:29.941Z,16.64
2022-11-13T14:25:04.838Z,16.44
2022-11-13T14:28:31.573Z,16.36
2022-11-13T14:31:47.807Z,16.24
2022-11-13T14:35:03.718Z,16.01
2022-11-13T14:38:25.023Z,15.82
2022-11-13T14:41:46.158Z,15.69
2022-11-13T14:45:14.004Z,15.45
2022-11-13T14:48:33.719Z,15.29
2022-11-13T14:51:54.822Z,15.30
2022-11-13T14:55:25.477Z,15.29
2022-11-13T14:58:44.892Z,15.20
2022-11-13T15:02:00.917Z,15.06
2022-11-13T15:05:17.137Z,14.82
2022-11-13T15:08:34.800Z,14.57
2022-11-13T15:11:51.055Z,14.49
2022-11-13T15:15:09.257Z,14.31
2022-11-13T15:18:24.727Z,14.17
2022-11-13T15:21:40.671Z,14.06
2022-11-13T15:24:55.643Z,14.01
2022-11-13T15:28:11.855Z,13.70
2022-11-13T15:31:31.590Z,13.36
2022-11-13T15:34:47.755Z,13.09
2022-11-13T15:38:03.551Z,12.79
2022-11-13T15:41:23.559Z,12.52
2022-11-13T15:44:40.789Z,12.32
2022-11-13T15:47:56.603Z,12.31
2022-11-13T15:51:37.881Z,12.13
2022-11-13T15:54:53.920Z,11.78
2022-11-13T15:58:19.024Z,11.17
2022-11-13T16:01:34.933Z,10.91
2022-11-13T16:04:56.965Z,11.42
2022-11-13T16:08:13.894Z,11.65
2022-11-13T16:11:34.915Z,11.60
2022-11-13T16:14:50.956Z,11.32
2022-11-13T16:18:07.128Z,11.10
2022-11-13T16:21:23.023Z,10.68
2022-11-13T16:24:38.604Z,10.17
2022-11-13T16:27:54.946Z,10.12
2022-11-13T16:31:10.988Z,10.13
2022-11-13T16:34:26.842Z,10.12
2022-11-13T16:37:42.954Z,10.11
2022-11-13T16:40:58.903Z,10.14
2022-11-13T16:44:15.058Z,10.12
2022-11-13T16:47:30.834Z,9.92
2022-11-13T16:50:46.951Z,9.55
2022-11-13T16:54:02.817Z,9.33
2022-11-13T16:57:19.875Z,9.32
2022-11-13T17:00:36.097Z,8.86
2022-11-13T17:03:51.923Z,8.35
2022-11-13T17:07:13.176Z,8.17
2022-11-13T17:10:31.973Z,8.30
2022-11-13T17:13:50.362Z,8.44
2022-11-13T17:17:07.339Z,8.56
2022-11-13T17:20:23.133Z,8.37
2022-11-13T17:23:38.786Z,8.46
2022-11-13T17:26:54.597Z,8.44
2022-11-13T17:30:12.384Z,8.08
2022-11-13T17:33:28.195Z,8.12
2022-11-13T17:36:43.933Z,8.07
2022-11-13T17:39:59.919Z,8.01
2022-11-13T17:43:15.961Z,8.14
2022-11-13T17:46:31.951Z,8.40
2022-11-13T17:49:47.786Z,8.31
2022-11-13T17:53:02.916Z,8.44
2022-11-13T17:56:20.221Z,8.21
2022-11-13T17:59:35.906Z,8.47
2022-11-13T18:02:52.207Z,8.41
2022-11-13T18:06:18.340Z,8.05
2022-11-13T18:09:35.327Z,8.23
2022-11-13T18:12:50.748Z,8.60
2022-11-13T18:16:08.432Z,8.55
2022-11-13T18:19:23.810Z,8.36
2022-11-13T18:22:39.678Z,8.50
2022-11-13T18:25:54.683Z,8.48
2022-11-13T18:29:09.982Z,8.11
2022-11-13T18:32:25.745Z,7.74
2022-11-13T18:35:41.019Z,8.07
2022-11-13T18:38:57.038Z,8.17
2022-11-13T18:42:12.916Z,8.20
2022-11-13T18:45:28.814Z,8.00
2022-11-13T18:48:45.351Z,8.26
2022-11-13T18:52:00.795Z,8.36
2022-11-13T18:55:17.174Z,8.29
2022-11-13T18:58:35.203Z,8.53
2022-11-13T19:01:50.745Z,8.38
2022-11-13T19:05:07.066Z,8.11
2022-11-13T19:08:22.698Z,8.12
2022-11-13T19:11:37.885Z,8.55
2022-11-13T19:14:53.830Z,8.65
2022-11-13T19:18:10.042Z,8.62
2022-11-13T19:21:27.713Z,8.29
2022-11-13T19:24:44.078Z,8.04
2022-11-13T19:28:00.326Z,8.09
2022-11-13T19:31:18.255Z,7.99
2022-11-13T19:34:34.506Z,8.02
2022-11-13T19:37:56.593Z,8.27
2022-11-13T19:41:12.245Z,8.28
2022-11-13T19:44:28.081Z,8.23
2022-11-13T19:47:44.008Z,8.36
2022-11-13T19:51:09.621Z,8.41
2022-11-13T19:54:24.824Z,8.35
2022-11-13T19:57:45.108Z,8.36
2022-11-13T20:01:08.442Z,8.20
2022-11-13T20:04:23.973Z,8.08
2022-11-13T20:07:40.036Z,8.21
2022-11-13T20:11:07.055Z,8.37
2022-11-13T20:14:22.943Z,8.20
2022-11-13T20:17:38.884Z,8.07
2022-11-13T20:20:55.262Z,8.04
2022-11-13T20:24:10.643Z,8.11
2022-11-13T20:27:27.125Z,8.14
2022-11-13T20:30:42.923Z,8.06
2022-11-13T20:33:59.134Z,8.04
2022-11-13T20:37:15.307Z,8.28
2022-11-13T20:40:30.890Z,8.23
2022-11-13T20:43:47.439Z,8.23
2022-11-13T20:47:03.054Z,8.10
2022-11-13T20:50:19.026Z,8.17
2022-11-13T20:53:35.073Z,8.35
2022-11-13T20:56:51.020Z,8.29
2022-11-13T21:00:07.512Z,8.42
2022-11-13T21:03:23.202Z,8.52
2022-11-13T21:06:39.493Z,8.61
2022-11-13T21:09:55.006Z,8.52
2022-11-13T21:13:11.161Z,8.36
2022-11-13T21:16:28.235Z,8.32
2022-11-13T21:19:44.019Z,8.46
2022-11-13T21:22:59.834Z,8.58
2022-11-13T21:26:16.218Z,8.42
2022-11-13T21:29:31.996Z,8.48
2022-11-13T21:32:47.910Z,8.68
2022-11-13T21:36:05.820Z,8.68
2022-11-13T21:39:22.846Z,8.57
2022-11-13T21:42:37.894Z,8.78
2022-11-13T21:45:53.959Z,8.95
2022-11-13T21:49:10.199Z,8.85
2022-11-13T21:52:25.958Z,8.72
2022-11-13T21:55:49.255Z,8.98
2022-11-13T21:59:05.224Z,8.99
2022-11-13T22:02:20.773Z,8.77
2022-11-13T22:05:37.215Z,8.58
2022-11-13T22:08:56.814Z,8.60
2022-11-13T22:12:13.243Z,8.57
2022-11-13T22:15:29.157Z,8.66
2022-11-13T22:18:45.493Z,8.69
2022-11-13T22:22:01.270Z,8.73
2022-11-13T22:25:17.285Z,8.67
2022-11-13T22:28:33.667Z,8.84
2022-11-13T22:31:50.083Z,8.68
2022-11-13T22:35:06.544Z,8.67
2022-11-13T22:38:21.945Z,8.68
2022-11-13T22:41:37.058Z,8.69
2022-11-13T22:44:56.489Z,8.67
2022-11-13T22:48:13.372Z,8.55
2022-11-13T22:51:38.177Z,8.61
2022-11-13T22:54:54.154Z,8.48
2022-11-13T22:58:10.076Z,8.47
2022-11-13T23:01:30.121Z,8.48
2022-11-13T23:04:46.031Z,8.62
2022-11-13T23:08:02.204Z,8.66
2022-11-13T23:11:30.194Z,8.68
2022-11-13T23:14:46.774Z,8.66
2022-11-13T23:18:05.838Z,8.62
2022-11-13T23:21:25.443Z,8.68
2022-11-13T23:24:41.127Z,8.41
2022-11-13T23:27:56.880Z,8.45
2022-11-13T23:31:12.480Z,8.56
2022-11-13T23:34:53.266Z,8.64
2022-11-13T23:38:04.195Z,8.45
2022-11-13T23:41:20.234Z,8.53
2022-11-13T23:44:36.263Z,8.62
2022-11-13T23:47:52.334Z,8.74
2022-11-13T23:51:08.208Z,8.66
2022-11-13T23:54:24.266Z,8.52
2022-11-13T23:57:39.949Z,8.53
